createdAt,value
2022-12-23T00:01:38.005Z,99265.91
2022-12-23T00:04:05.965Z,99268.27
2022-12-23T00:06:33.931Z,99270.98
2022-12-23T00:09:01.549Z,99273.91
2022-12-23T00:11:29.543Z,99273.85
2022-12-23T00:14:20.886Z,99275.95
2022-12-23T00:16:50.719Z,99274.95
2022-12-23T00:19:19.391Z,99273.08
2022-12-23T00:21:48.655Z,99271.92
2022-12-23T00:24:16.558Z,99275.46
2022-12-23T00:26:44.277Z,99277.95
2022-12-23T00:29:11.953Z,99279.23
2022-12-23T00:31:39.633Z,99282.59
2022-12-23T00:34:07.407Z,99292.35
2022-12-23T00:36:35.093Z,99297.42
2022-12-23T00:39:21.392Z,99295.91
2022-12-23T00:42:07.695Z,99298.73
2022-12-23T00:44:35.397Z,99297.46
2022-12-23T00:47:03.064Z,99297.36
2022-12-23T00:49:42.862Z,99296.45
2022-12-23T00:52:13.843Z,99300.36
2022-12-23T00:54:41.601Z,99299.36
2022-12-23T00:57:09.480Z,99303.04
2022-12-23T00:59:37.485Z,99305.45
2022-12-23T01:02:24.213Z,99306.84
2022-12-23T01:05:10.623Z,99311.86
2022-12-23T01:07:38.566Z,99311.53
2022-12-23T01:10:06.728Z,99308.58
2022-12-23T01:12:34.430Z,99309.03
2022-12-23T01:15:02.091Z,99314.38
2022-12-23T01:17:30.017Z,99314.84
2022-12-23T01:19:57.697Z,99309.05
2022-12-23T01:22:25.348Z,99315.80
2022-12-23T01:24:52.924Z,99313.08
2022-12-23T01:27:20.506Z,99308.73
2022-12-23T01:29:48.469Z,99309.36
2022-12-23T01:32:16.204Z,99311.31
2022-12-23T01:34:44.018Z,99313.61
2022-12-23T01:37:11.797Z,99317.73
2022-12-23T01:39:39.501Z,99318.33
2022-12-23T01:42:32.760Z,99315.13
2022-12-23T01:45:01.606Z,99318.81
2022-12-23T01:47:34.836Z,99320.30
2022-12-23T01:50:15.597Z,99318.16
2022-12-23T01:53:09.787Z,99319.17
2022-12-23T01:55:52.591Z,99320.92
2022-12-23T01:58:23.001Z,99321.59
2022-12-23T02:01:09.797Z,99319.89
2022-12-23T02:03:44.314Z,99317.23
2022-12-23T02:06:53.483Z,99322.66
2022-12-23T02:09:29.564Z,99319.08
2022-12-23T02:12:29.415Z,99326.00
2022-12-23T02:15:21.761Z,99334.61
2022-12-23T02:17:58.270Z,99344.21
2022-12-23T02:20:44.522Z,99340.66
2022-12-23T02:23:43.282Z,99334.27
2022-12-23T02:26:32.256Z,99337.77
2022-12-23T02:29:15.097Z,99342.45
2022-12-23T02:48:10.395Z,99357.56
2022-12-23T02:50:41.532Z,99358.80
2022-12-23T02:53:43.482Z,99356.64
2022-12-23T02:56:14.518Z,99364.89
2022-12-23T02:58:50.258Z,99362.64
2022-12-23T03:01:19.679Z,99364.98
2022-12-23T03:03:49.488Z,99360.49
2022-12-23T03:06:23.083Z,99364.18
2022-12-23T03:08:54.036Z,99367.54
2022-12-23T03:11:22.409Z,99359.14
2022-12-23T03:14:33.036Z,99357.59
2022-12-23T03:17:17.803Z,99359.41
2022-12-23T03:20:18.979Z,99368.65
2022-12-23T03:22:46.600Z,99364.52
2022-12-23T03:25:26.815Z,99367.86
2022-12-23T03:28:09.464Z,99365.63
2022-12-23T03:30:39.424Z,99359.17
2022-12-23T03:33:19.518Z,99363.04
2022-12-23T03:35:52.764Z,99364.20
2022-12-23T03:38:22.791Z,99352.67
2022-12-23T03:41:03.194Z,99353.99
2022-12-23T03:43:37.119Z,99364.13
2022-12-23T03:46:15.828Z,99369.91
2022-12-23T03:48:54.360Z,99371.91
2022-12-23T03:51:36.445Z,99375.83
2022-12-23T03:54:10.249Z,99379.09
2022-12-23T03:56:53.988Z,99381.98
2022-12-23T03:59:26.865Z,99381.42
2022-12-23T04:02:00.169Z,99379.34
2022-12-23T04:04:43.115Z,99381.21
2022-12-23T04:07:15.653Z,99378.96
2022-12-23T04:09:44.209Z,99380.79
2022-12-23T04:12:14.286Z,99382.94
2022-12-23T04:14:48.971Z,99387.67
2022-12-23T04:17:17.792Z,99383.05
2022-12-23T04:19:46.597Z,99379.64
2022-12-23T04:22:16.165Z,99380.77
2022-12-23T04:24:44.029Z,99385.17
2022-12-23T04:27:16.515Z,99382.36
2022-12-23T04:29:44.502Z,99379.23
2022-12-23T04:32:12.229Z,99377.48
2022-12-23T04:34:39.890Z,99380.40
2022-12-23T04:37:07.700Z,99380.02
2022-12-23T04:39:35.353Z,99379.88
2022-12-23T04:42:03.713Z,99381.49
2022-12-23T04:44:31.466Z,99382.92
2022-12-23T04:46:59.262Z,99386.17
2022-12-23T04:49:27.194Z,99385.90
2022-12-23T04:51:55.086Z,99382.04
2022-12-23T04:54:22.861Z,99383.41
2022-12-23T04:56:50.778Z,99382.63
2022-12-23T04:59:18.511Z,99389.08
2022-12-23T05:01:46.575Z,99388.95
2022-12-23T05:04:14.475Z,99390.06
2022-12-23T05:06:42.285Z,99388.79
2022-12-23T05:09:10.232Z,99389.71
2022-12-23T05:11:42.154Z,99395.83
2022-12-23T05:14:11.656Z,99398.48
2022-12-23T05:16:39.823Z,99404.92
2022-12-23T05:19:07.984Z,99405.30
2022-12-23T05:21:35.802Z,99409.55
2022-12-23T05:24:03.664Z,99413.54
2022-12-23T05:26:31.427Z,99417.21
2022-12-23T05:28:59.237Z,99421.96
2022-12-23T05:31:26.968Z,99421.83
2022-12-23T05:33:54.874Z,99429.71
2022-12-23T05:36:22.611Z,99428.36
2022-12-23T05:38:50.290Z,99429.40
2022-12-23T05:41:17.998Z,99428.55
2022-12-23T05:43:45.836Z,99423.12
2022-12-23T05:46:13.619Z,99427.48
2022-12-23T05:48:41.433Z,99431.30
2022-12-23T05:51:09.095Z,99438.34
2022-12-23T05:53:36.742Z,99436.85
2022-12-23T05:56:06.108Z,99435.98
2022-12-23T05:58:34.118Z,99438.73
2022-12-23T06:06:23.098Z,99439.96
2022-12-23T06:08:55.782Z,99445.20
2022-12-23T06:11:27.687Z,99439.84
2022-12-23T06:13:55.589Z,99434.77
2022-12-23T06:16:23.368Z,99439.98
2022-12-23T06:18:55.257Z,99446.64
2022-12-23T06:21:23.260Z,99450.76
2022-12-23T06:23:51.665Z,99457.78
2022-12-23T06:26:19.470Z,99453.89
2022-12-23T06:28:47.319Z,99462.92
2022-12-23T06:31:15.382Z,99467.04
2022-12-23T06:33:43.220Z,99464.98
2022-12-23T06:36:11.043Z,99466.04
2022-12-23T06:38:38.709Z,99466.12
2022-12-23T06:41:07.690Z,99469.84
2022-12-23T06:43:35.458Z,99466.69
2022-12-23T06:46:03.350Z,99466.92
2022-12-23T06:48:31.161Z,99461.35
2022-12-23T06:50:58.820Z,99465.66
2022-12-23T06:53:26.587Z,99464.14
2022-12-23T06:56:02.114Z,99468.66
2022-12-23T06:58:30.145Z,99468.34
2022-12-23T07:00:58.002Z,99475.66
2022-12-23T07:03:25.897Z,99479.90
2022-12-23T07:05:53.750Z,99476.91
2022-12-23T07:08:21.745Z,99478.49
2022-12-23T07:10:49.446Z,99477.15
2022-12-23T07:13:17.219Z,99478.13
2022-12-23T07:15:44.957Z,99480.94
2022-12-23T07:18:12.819Z,99490.77
2022-12-23T07:20:40.807Z,99492.87
2022-12-23T07:23:08.634Z,99489.34
2022-12-23T07:25:36.401Z,99492.54
2022-12-23T07:28:04.303Z,99495.88
2022-12-23T07:30:32.017Z,99500.80
2022-12-23T07:32:59.878Z,99503.53
2022-12-23T07:35:28.216Z,99503.11
2022-12-23T07:37:56.501Z,99500.48
2022-12-23T07:40:24.967Z,99505.38
2022-12-23T07:42:58.116Z,99502.22
2022-12-23T07:45:27.664Z,99495.02
2022-12-23T07:47:59.729Z,99485.36
2022-12-23T07:50:27.620Z,99478.13
2022-12-23T07:52:56.306Z,99473.41
2022-12-23T07:55:24.042Z,99474.49
2022-12-23T07:57:53.191Z,99472.88
2022-12-23T08:00:21.304Z,99471.56
2022-12-23T08:02:49.332Z,99474.20
2022-12-23T08:05:17.418Z,99477.91
2022-12-23T08:07:45.412Z,99485.61
2022-12-23T08:10:13.042Z,99486.04
2022-12-23T08:12:40.731Z,99475.58
2022-12-23T08:15:09.305Z,99475.51
2022-12-23T08:17:36.973Z,99471.91
2022-12-23T08:35:54.676Z,99473.19
2022-12-23T08:38:22.495Z,99474.70
2022-12-23T08:40:50.134Z,99476.52
2022-12-23T08:43:17.876Z,99480.77
2022-12-23T08:45:45.779Z,99479.09
2022-12-23T08:48:14.173Z,99472.70
2022-12-23T08:50:44.482Z,99471.55
2022-12-23T08:53:13.260Z,99466.80
2022-12-23T08:55:45.934Z,99464.70
2022-12-23T08:58:16.020Z,99460.34
2022-12-23T09:00:43.688Z,99462.30
2022-12-23T09:03:11.459Z,99455.83
2022-12-23T09:05:41.471Z,99455.48
2022-12-23T09:08:09.751Z,99457.98
2022-12-23T09:10:42.729Z,99458.45
2022-12-23T09:13:13.882Z,99453.63
2022-12-23T09:15:45.750Z,99448.48
2022-12-23T09:18:13.467Z,99442.42
2022-12-23T09:20:41.191Z,99437.60
2022-12-23T09:23:08.938Z,99428.27
2022-12-23T09:25:37.162Z,99423.87
2022-12-23T09:28:06.885Z,99417.50
2022-12-23T09:30:34.656Z,99413.20
2022-12-23T09:33:02.321Z,99413.36
2022-12-23T09:35:30.089Z,99410.01
2022-12-23T09:37:57.872Z,99406.14
2022-12-23T09:40:30.726Z,99399.69
2022-12-23T09:43:20.337Z,99396.52
2022-12-23T09:46:19.333Z,99390.64
2022-12-23T10:03:54.396Z,99375.65
2022-12-23T10:06:27.253Z,99377.39
2022-12-23T10:09:02.570Z,99375.69
2022-12-23T10:11:37.187Z,99373.70
2022-12-23T10:14:16.411Z,99368.52
2022-12-23T10:16:50.571Z,99367.27
2022-12-23T10:19:25.086Z,99364.84
2022-12-23T10:22:02.232Z,99360.91
2022-12-23T10:24:41.906Z,99358.35
2022-12-23T10:27:22.574Z,99357.50
2022-12-23T10:29:50.258Z,99361.38
2022-12-23T10:33:03.837Z,99363.65
2022-12-23T10:35:41.631Z,99356.73
2022-12-23T10:38:23.455Z,99355.63
2022-12-23T10:41:23.364Z,99353.20
2022-12-23T10:44:03.209Z,99358.52
2022-12-23T10:46:57.199Z,99357.42
2022-12-23T10:49:43.099Z,99354.85
2022-12-23T10:52:27.751Z,99349.41
2022-12-23T10:54:55.475Z,99347.84
2022-12-23T10:57:24.732Z,99340.62
2022-12-23T10:59:52.518Z,99333.71
2022-12-23T11:02:32.650Z,99328.39
2022-12-23T11:05:00.425Z,99320.90
2022-12-23T11:07:46.045Z,99319.77
2022-12-23T11:10:23.535Z,99315.67
2022-12-23T11:23:27.334Z,99299.61
2022-12-23T11:26:02.448Z,99292.73
2022-12-23T11:28:32.845Z,99296.01
2022-12-23T11:31:11.595Z,99301.36
2022-12-23T11:33:46.336Z,99293.45
2022-12-23T11:36:13.982Z,99294.79
2022-12-23T11:38:49.600Z,99290.65
2022-12-23T11:41:29.568Z,99288.34
2022-12-23T11:44:03.633Z,99282.33
2022-12-23T11:46:34.070Z,99280.12
2022-12-23T11:49:25.868Z,99275.55
2022-12-23T11:52:11.912Z,99271.20
2022-12-23T11:54:40.121Z,99274.58
2022-12-23T11:57:19.129Z,99272.71
2022-12-23T11:59:49.966Z,99269.49
2022-12-23T12:02:26.169Z,99268.49
2022-12-23T12:05:05.198Z,99266.94
2022-12-23T12:07:33.677Z,99268.36
2022-12-23T12:10:02.585Z,99267.31
2022-12-23T12:12:30.511Z,99261.86
2022-12-23T12:15:00.164Z,99260.86
2022-12-23T12:17:37.589Z,99260.90
2022-12-23T12:20:29.337Z,99261.47
2022-12-23T12:23:09.185Z,99262.10
2022-12-23T12:25:46.175Z,99262.30
2022-12-23T12:28:21.109Z,99262.48
2022-12-23T12:31:05.844Z,99261.88
2022-12-23T12:33:43.913Z,99260.96
2022-12-23T12:36:14.282Z,99258.36
2022-12-23T12:38:45.781Z,99260.37
2022-12-23T12:41:22.709Z,99259.02
2022-12-23T12:44:33.027Z,99256.13
2022-12-23T12:47:36.074Z,99255.60
2022-12-23T12:50:12.122Z,99257.05
2022-12-23T12:52:41.880Z,99256.90
2022-12-23T12:55:20.037Z,99256.01
2022-12-23T12:57:47.815Z,99256.77
2022-12-23T13:00:21.761Z,99256.30
2022-12-23T13:03:28.083Z,99258.91
2022-12-23T13:06:14.981Z,99255.08
2022-12-23T13:09:00.049Z,99256.08
2022-12-23T13:11:38.063Z,99255.73
2022-12-23T13:14:34.006Z,99257.20
2022-12-23T13:17:24.464Z,99263.66
2022-12-23T13:19:59.409Z,99264.80
2022-12-23T13:22:37.783Z,99266.03
2022-12-23T13:25:17.761Z,99262.06
2022-12-23T13:27:58.503Z,99262.92
2022-12-23T13:30:31.514Z,99261.44
2022-12-23T13:33:23.441Z,99263.23
2022-12-23T13:36:05.316Z,99264.73
2022-12-23T13:39:00.520Z,99262.69
2022-12-23T13:41:43.849Z,99261.73
2022-12-23T13:44:18.298Z,99253.13
2022-12-23T13:47:10.846Z,99252.98
2022-12-23T13:49:41.431Z,99251.59
2022-12-23T13:52:14.264Z,99251.25
2022-12-23T13:55:06.879Z,99252.21
2022-12-23T13:57:37.306Z,99257.44
2022-12-23T14:00:17.317Z,99255.77
2022-12-23T14:03:05.559Z,99253.45
2022-12-23T14:05:38.795Z,99247.11
2022-12-23T14:08:18.337Z,99246.63
2022-12-23T14:11:24.174Z,99245.89
2022-12-23T14:13:51.908Z,99245.41
2022-12-23T14:16:44.734Z,99248.73
2022-12-23T14:19:18.492Z,99249.98
2022-12-23T14:21:48.963Z,99251.50
2022-12-23T14:25:00.117Z,99256.16
2022-12-23T14:27:49.016Z,99255.73
2022-12-23T14:30:36.311Z,99257.55
2022-12-23T14:33:13.954Z,99250.47
2022-12-23T14:35:42.882Z,99251.84
2022-12-23T14:38:13.894Z,99262.52
2022-12-23T14:40:41.466Z,99266.98
2022-12-23T14:43:33.239Z,99269.41
2022-12-23T14:46:06.977Z,99267.57
2022-12-23T14:48:34.663Z,99268.09
2022-12-23T14:51:03.527Z,99266.14
2022-12-23T14:53:33.993Z,99268.02
2022-12-23T14:56:19.887Z,99269.47
2022-12-23T14:58:58.626Z,99274.75
2022-12-23T15:02:00.678Z,99276.32
2022-12-23T15:04:35.338Z,99282.08
2022-12-23T15:07:07.184Z,99282.62
2022-12-23T15:09:40.162Z,99282.42
2022-12-23T15:12:19.794Z,99283.50
2022-12-23T15:14:52.865Z,99284.17
2022-12-23T15:17:31.041Z,99281.57
2022-12-23T15:20:10.849Z,99285.75
2022-12-23T15:22:42.317Z,99287.02
2022-12-23T15:25:29.009Z,99287.23
2022-12-23T15:28:01.928Z,99285.83
2022-12-23T15:30:35.749Z,99285.48
2022-12-23T15:33:27.754Z,99286.70
2022-12-23T15:35:55.507Z,99282.52
2022-12-23T15:38:29.712Z,99284.61
2022-12-23T15:41:05.941Z,99280.84
2022-12-23T15:43:41.879Z,99278.55
2022-12-23T15:46:28.542Z,99278.61
2022-12-23T15:48:58.318Z,99280.20
2022-12-23T15:52:06.274Z,99280.16
2022-12-23T15:54:36.895Z,99279.36
2022-12-23T15:57:05.060Z,99277.92
2022-12-23T15:59:38.804Z,99278.81
2022-12-23T16:05:26.628Z,99280.91
2022-12-23T16:08:11.754Z,99277.48
2022-12-23T16:10:41.288Z,99280.00
2022-12-23T16:13:20.087Z,99277.06
2022-12-23T16:15:48.029Z,99276.45
2022-12-23T16:18:25.659Z,99273.78
2022-12-23T16:20:56.891Z,99274.00
2022-12-23T16:23:33.582Z,99280.39
2022-12-23T16:26:02.375Z,99281.86
2022-12-23T16:28:38.990Z,99281.14
2022-12-23T16:31:08.159Z,99278.09
2022-12-23T16:33:43.561Z,99284.39
2022-12-23T16:36:21.271Z,99280.55
2022-12-23T16:38:51.412Z,99281.20
2022-12-23T16:41:20.064Z,99282.52
2022-12-23T16:43:52.371Z,99283.98
2022-12-23T16:46:23.483Z,99280.66
2022-12-23T16:49:04.616Z,99282.45
2022-12-23T16:51:34.292Z,99280.73
2022-12-23T16:54:02.332Z,99279.21
2022-12-23T16:56:36.468Z,99282.90
2022-12-23T16:59:04.831Z,99281.05
2022-12-23T17:01:39.409Z,99281.98
2022-12-23T17:04:07.945Z,99288.58
2022-12-23T17:06:37.273Z,99289.85
2022-12-23T17:09:06.524Z,99286.77
2022-12-23T17:11:43.338Z,99285.91
2022-12-23T17:14:22.853Z,99284.95
2022-12-23T17:16:51.820Z,99288.33
2022-12-23T17:19:27.892Z,99290.97
2022-12-23T17:22:01.824Z,99292.32
2022-12-23T17:24:29.990Z,99292.28
2022-12-23T17:26:57.902Z,99287.92
2022-12-23T17:29:26.049Z,99289.81
2022-12-23T17:31:54.593Z,99292.23
2022-12-23T17:34:24.360Z,99295.98
2022-12-23T17:36:52.891Z,99295.95
2022-12-23T17:39:22.295Z,99294.16
2022-12-23T17:41:50.270Z,99294.08
2022-12-23T17:44:18.857Z,99292.10
2022-12-23T17:46:46.948Z,99291.33
2022-12-23T17:49:14.939Z,99295.07
2022-12-23T17:51:43.256Z,99296.94
2022-12-23T17:54:21.701Z,99299.27
2022-12-23T17:56:50.067Z,99306.73
2022-12-23T17:59:17.973Z,99309.66
2022-12-23T18:01:45.952Z,99313.67
2022-12-23T18:04:13.790Z,99321.88
2022-12-23T18:06:41.818Z,99325.33
2022-12-23T18:09:09.612Z,99325.94
2022-12-23T18:11:44.996Z,99323.58
2022-12-23T18:14:16.614Z,99320.93
2022-12-23T18:16:44.528Z,99323.23
2022-12-23T18:19:17.782Z,99328.86
2022-12-23T18:21:45.907Z,99335.46
2022-12-23T18:24:13.606Z,99336.56
2022-12-23T18:26:41.889Z,99334.20
2022-12-23T18:29:09.523Z,99337.91
2022-12-23T18:31:45.328Z,99341.66
2022-12-23T18:34:18.136Z,99349.63
2022-12-23T18:36:48.274Z,99346.13
2022-12-23T18:39:16.359Z,99349.42
2022-12-23T18:41:44.095Z,99349.61
2022-12-23T18:44:19.345Z,99351.92
2022-12-23T18:46:48.268Z,99358.84
2022-12-23T18:49:16.222Z,99363.38
2022-12-23T18:51:44.038Z,99366.73
2022-12-23T18:54:16.530Z,99364.96
2022-12-23T18:56:44.429Z,99364.65
2022-12-23T18:59:17.030Z,99370.78
2022-12-23T19:05:07.276Z,99380.14
2022-12-23T19:07:34.952Z,99383.53
2022-12-23T19:10:05.821Z,99383.52
2022-12-23T19:12:33.441Z,99381.62
2022-12-23T19:15:01.090Z,99386.57
2022-12-23T19:17:28.770Z,99386.21
2022-12-23T19:19:56.425Z,99384.44
2022-12-23T19:22:24.896Z,99381.91
2022-12-23T19:25:05.388Z,99380.09
2022-12-23T19:27:34.526Z,99382.64
2022-12-23T19:30:03.848Z,99396.16
2022-12-23T19:32:31.539Z,99395.14
2022-12-23T19:34:59.126Z,99400.55
2022-12-23T19:37:26.745Z,99401.20
2022-12-23T19:39:54.360Z,99405.25
2022-12-23T19:42:21.937Z,99413.05
2022-12-23T19:44:49.622Z,99417.69
2022-12-23T19:47:17.510Z,99432.04
2022-12-23T19:49:45.138Z,99440.21
2022-12-23T19:52:13.085Z,99443.80
2022-12-23T19:54:40.726Z,99443.21
2022-12-23T19:57:08.368Z,99442.51
2022-12-23T19:59:36.017Z,99444.27
2022-12-23T20:05:20.405Z,99434.09
2022-12-23T20:07:48.005Z,99440.58
2022-12-23T20:10:15.695Z,99439.87
2022-12-23T20:12:43.385Z,99438.70
2022-12-23T20:15:11.179Z,99441.73
2022-12-23T20:17:38.810Z,99442.95
2022-12-23T20:20:07.558Z,99445.55
2022-12-23T20:22:35.195Z,99446.34
2022-12-23T20:25:02.850Z,99448.76
2022-12-23T20:27:30.582Z,99450.19
2022-12-23T20:29:58.226Z,99444.11
2022-12-23T20:32:25.946Z,99450.34
2022-12-23T20:34:53.796Z,99452.71
2022-12-23T20:37:21.447Z,99455.18
2022-12-23T20:39:49.155Z,99450.41
2022-12-23T20:42:16.792Z,99445.90
2022-12-23T20:44:44.415Z,99444.09
2022-12-23T20:47:12.073Z,99441.29
2022-12-23T20:49:39.896Z,99449.06
2022-12-23T20:52:07.496Z,99444.75
2022-12-23T20:54:35.174Z,99437.07
2022-12-23T20:57:02.928Z,99434.05
2022-12-23T20:59:30.652Z,99442.48
2022-12-23T21:01:59.320Z,99443.90
2022-12-23T21:04:27.292Z,99448.84
2022-12-23T21:06:54.966Z,99450.24
2022-12-23T21:09:22.608Z,99444.08
2022-12-23T21:11:50.279Z,99437.45
2022-12-23T21:14:18.115Z,99438.30
2022-12-23T21:16:45.886Z,99435.86
2022-12-23T21:19:17.375Z,99436.52
2022-12-23T21:21:45.531Z,99443.36
2022-12-23T21:24:14.080Z,99437.55
2022-12-23T21:26:42.030Z,99434.91
2022-12-23T21:29:10.524Z,99439.89
2022-12-23T21:31:40.929Z,99443.90
2022-12-23T21:34:09.099Z,99442.58
2022-12-23T21:36:38.829Z,99442.20
2022-12-23T21:39:08.472Z,99441.10
2022-12-23T21:41:39.009Z,99438.45
2022-12-23T21:44:06.899Z,99440.58
2022-12-23T21:46:35.281Z,99443.41
2022-12-23T21:49:03.235Z,99447.19
2022-12-23T21:51:39.649Z,99449.98
2022-12-23T21:54:09.817Z,99457.86
2022-12-23T21:56:38.274Z,99459.86
2022-12-23T21:59:12.895Z,99462.91
2022-12-23T22:01:42.307Z,99465.46
2022-12-23T22:04:10.322Z,99466.48
2022-12-23T22:06:40.757Z,99462.69
2022-12-23T22:09:08.776Z,99462.40
2022-12-23T22:11:37.033Z,99462.67
2022-12-23T22:14:07.562Z,99456.27
2022-12-23T22:16:35.915Z,99455.95
2022-12-23T22:19:05.644Z,99457.60
2022-12-23T22:21:33.769Z,99455.21
2022-12-23T22:24:02.067Z,99451.81
2022-12-23T22:26:32.270Z,99451.98
2022-12-23T22:29:02.479Z,99459.23
2022-12-23T22:31:49.520Z,99459.86
2022-12-23T22:34:20.304Z,99459.31
2022-12-23T22:36:49.132Z,99460.80
2022-12-23T22:39:21.099Z,99460.03
2022-12-23T22:41:50.922Z,99460.90
2022-12-23T22:44:19.754Z,99457.14
2022-12-23T22:46:48.393Z,99464.49
2022-12-23T22:49:16.785Z,99468.86
2022-12-23T22:51:44.851Z,99464.48
2022-12-23T22:54:12.654Z,99465.82
2022-12-23T22:56:40.250Z,99463.98
2022-12-23T22:59:12.320Z,99458.14
2022-12-23T23:01:39.971Z,99455.83
2022-12-23T23:04:07.991Z,99451.77
2022-12-23T23:06:38.484Z,99456.17
2022-12-23T23:09:08.719Z,99464.04
2022-12-23T23:11:36.421Z,99470.63
2022-12-23T23:14:04.652Z,99474.58
2022-12-23T23:16:33.476Z,99467.58
2022-12-23T23:19:01.994Z,99463.83
2022-12-23T23:21:29.711Z,99473.53
2022-12-23T23:23:57.402Z,99475.14
2022-12-23T23:26:27.328Z,99474.80
2022-12-23T23:28:56.263Z,99476.96
2022-12-23T23:31:42.334Z,99474.00
2022-12-23T23:34:11.368Z,99472.95
2022-12-23T23:36:39.380Z,99474.84
2022-12-23T23:39:07.548Z,99466.96
2022-12-23T23:41:35.773Z,99464.77
2022-12-23T23:44:03.721Z,99464.67
2022-12-23T23:46:31.788Z,99460.08
2022-12-23T23:48:59.982Z,99455.73
2022-12-23T23:51:27.658Z,99449.50
2022-12-23T23:53:55.294Z,99449.19
2022-12-23T23:56:25.744Z,99450.19
2022-12-23T23:58:54.838Z,99446.57
